createdAt,value
2019-02-18T00:03:02.484Z,83.52
2019-02-18T00:08:20.067Z,82.81
2019-02-18T00:13:38.507Z,82.88
2019-02-18T00:18:56.465Z,83.04
2019-02-18T00:24:14.493Z,83.50
2019-02-18T00:29:32.215Z,83.86
2019-02-18T00:34:49.938Z,83.21
2019-02-18T00:40:07.347Z,83.67
2019-02-18T00:45:25.604Z,83.39
2019-02-18T00:50:42.746Z,83.09
2019-02-18T00:56:00.086Z,83.15
2019-02-18T01:01:17.716Z,82.99
2019-02-18T01:06:35.846Z,83.51
2019-02-18T01:11:53.186Z,83.22
2019-02-18T01:17:11.685Z,83.52
2019-02-18T01:22:29.416Z,83.66
2019-02-18T01:27:46.684Z,83.93
2019-02-18T01:33:04.792Z,83.83
2019-02-18T01:38:22.324Z,83.68
2019-02-18T01:43:39.683Z,83.77
2019-02-18T01:48:57.308Z,83.31
2019-02-18T01:54:16.164Z,82.99
2019-02-18T01:59:34.079Z,83.31
2019-02-18T02:04:51.973Z,83.33
2019-02-18T02:10:10.407Z,83.62
2019-02-18T02:15:27.775Z,83.85
2019-02-18T02:20:45.544Z,83.78
2019-02-18T02:26:03.366Z,83.71
2019-02-18T02:31:21.809Z,83.82
2019-02-18T02:36:39.678Z,83.38
2019-02-18T02:41:57.909Z,83.43
2019-02-18T02:47:15.213Z,84.33
2019-02-18T02:52:32.865Z,84.89
2019-02-18T02:57:50.487Z,84.45
2019-02-18T03:03:08.330Z,84.30
2019-02-18T03:08:26.115Z,83.96
2019-02-18T03:13:43.629Z,84.12
2019-02-18T03:19:01.144Z,84.40
2019-02-18T03:24:18.736Z,84.07
2019-02-18T03:29:54.468Z,84.24
2019-02-18T03:35:12.674Z,84.53
2019-02-18T03:40:30.324Z,84.41
2019-02-18T03:45:47.914Z,83.59
2019-02-18T03:51:05.505Z,83.56
2019-02-18T03:56:23.225Z,83.81
2019-02-18T04:01:40.996Z,84.26
2019-02-18T04:06:58.590Z,84.36
2019-02-18T04:12:16.155Z,84.38
2019-02-18T04:17:34.492Z,84.14
2019-02-18T04:22:52.805Z,84.18
2019-02-18T04:28:10.516Z,84.17
2019-02-18T04:33:27.826Z,84.40
2019-02-18T04:38:53.874Z,84.04
2019-02-18T04:44:04.076Z,84.68
2019-02-18T04:49:21.816Z,84.78
2019-02-18T04:54:39.685Z,84.76
2019-02-18T04:59:57.665Z,84.74
2019-02-18T05:05:15.073Z,84.77
2019-02-18T05:10:32.685Z,84.90
2019-02-18T05:15:50.377Z,84.95
2019-02-18T05:21:08.253Z,84.77
2019-02-18T05:26:25.667Z,85.15
2019-02-18T05:31:43.326Z,85.33
2019-02-18T05:37:00.805Z,85.06
2019-02-18T05:42:18.432Z,84.96
2019-02-18T05:47:36.481Z,85.15
2019-02-18T05:52:53.799Z,84.87
2019-02-18T05:58:11.426Z,84.96
2019-02-18T06:03:29.427Z,84.80
2019-02-18T06:08:47.285Z,85.03
2019-02-18T06:14:04.498Z,84.83
2019-02-18T06:19:21.885Z,85.36
2019-02-18T06:24:39.642Z,85.44
2019-02-18T06:29:57.589Z,85.28
2019-02-18T06:35:15.678Z,85.21
2019-02-18T06:40:33.753Z,84.96
2019-02-18T06:46:16.164Z,84.72
2019-02-18T06:51:33.983Z,84.33
2019-02-18T06:57:16.525Z,84.75
2019-02-18T07:02:51.574Z,84.98
2019-02-18T07:08:25.116Z,84.72
2019-02-18T07:13:43.180Z,84.30
2019-02-18T07:19:01.385Z,84.38
2019-02-18T07:24:19.067Z,84.11
2019-02-18T07:29:36.816Z,83.55
2019-02-18T07:34:54.794Z,83.27
2019-02-18T07:40:12.400Z,82.73
2019-02-18T07:45:30.389Z,81.98
2019-02-18T07:50:48.177Z,81.23
2019-02-18T07:56:05.607Z,79.45
2019-02-18T08:01:23.218Z,79.71
2019-02-18T08:06:40.732Z,78.28
2019-02-18T08:11:57.836Z,78.13
2019-02-18T08:17:15.209Z,76.90
2019-02-18T08:22:32.323Z,76.29
2019-02-18T08:27:49.607Z,75.43
2019-02-18T08:33:07.794Z,74.08
2019-02-18T08:38:26.445Z,74.40
2019-02-18T08:43:43.719Z,72.76
2019-02-18T08:49:01.690Z,71.33
2019-02-18T08:54:18.913Z,71.70
2019-02-18T08:59:36.777Z,68.77
2019-02-18T09:04:54.976Z,69.70
2019-02-18T09:10:12.320Z,68.65
2019-02-18T09:15:29.907Z,66.12
2019-02-18T09:20:47.598Z,66.47
2019-02-18T09:26:05.948Z,65.68
2019-02-18T09:31:30.945Z,63.36
2019-02-18T09:36:49.387Z,62.40
2019-02-18T09:42:07.176Z,61.25
2019-02-18T09:47:24.731Z,59.86
2019-02-18T09:52:42.365Z,56.71
2019-02-18T09:58:00.223Z,56.54
2019-02-18T10:03:18.270Z,55.27
2019-02-18T10:08:35.969Z,53.16
2019-02-18T10:13:54.694Z,54.14
2019-02-18T10:19:13.169Z,53.11
2019-02-18T10:24:30.442Z,51.18
2019-02-18T10:29:50.032Z,46.75
2019-02-18T10:35:08.396Z,48.66
2019-02-18T10:40:25.759Z,47.24
2019-02-18T10:45:44.708Z,47.22
2019-02-18T10:51:01.897Z,45.69
2019-02-18T10:56:19.687Z,43.57
2019-02-18T11:01:37.810Z,43.20
2019-02-18T11:06:55.699Z,43.24
2019-02-18T11:12:13.614Z,36.55
2019-02-18T11:17:38.707Z,36.00
2019-02-18T11:22:49.866Z,35.31
2019-02-18T11:28:07.691Z,35.48
2019-02-18T11:33:25.461Z,34.66
2019-02-18T11:38:42.715Z,33.86
2019-02-18T11:44:00.239Z,32.11
2019-02-18T11:49:17.799Z,32.17
2019-02-18T11:54:35.698Z,27.88
2019-02-18T11:59:53.305Z,24.52
2019-02-18T12:05:11.192Z,22.77
2019-02-18T12:10:29.328Z,21.54
2019-02-18T12:15:46.621Z,20.82
2019-02-18T12:21:05.525Z,21.80
2019-02-18T12:26:22.631Z,22.08
2019-02-18T12:31:39.952Z,19.88
2019-02-18T12:36:57.487Z,23.21
2019-02-18T12:42:15.705Z,23.64
2019-02-18T12:47:33.298Z,27.08
2019-02-18T12:52:50.429Z,26.65
2019-02-18T12:58:08.149Z,26.13
2019-02-18T13:03:26.548Z,28.54
2019-02-18T13:08:44.564Z,25.31
2019-02-18T13:14:02.093Z,27.12
2019-02-18T13:19:19.427Z,29.46
2019-02-18T13:24:37.074Z,27.44
2019-02-18T13:29:55.126Z,27.81
2019-02-18T13:35:12.785Z,27.14
2019-02-18T13:40:30.725Z,26.70
2019-02-18T13:45:48.749Z,25.80
2019-02-18T13:51:06.717Z,26.51
2019-02-18T13:56:25.408Z,25.29
2019-02-18T14:01:43.111Z,26.08
2019-02-18T14:07:01.020Z,26.76
2019-02-18T14:12:18.379Z,29.09
2019-02-18T14:17:36.172Z,29.07
2019-02-18T14:22:54.227Z,30.59
2019-02-18T14:28:11.995Z,29.26
2019-02-18T14:33:30.247Z,32.19
2019-02-18T14:38:47.911Z,29.27
2019-02-18T14:44:05.409Z,29.86
2019-02-18T14:49:22.842Z,30.52
2019-02-18T14:54:40.904Z,30.64
2019-02-18T14:59:58.256Z,30.35
2019-02-18T15:05:15.783Z,32.99
2019-02-18T15:10:33.210Z,34.22
2019-02-18T15:15:51.122Z,36.56
2019-02-18T15:21:09.733Z,38.86
2019-02-18T15:26:27.409Z,43.23
2019-02-18T15:31:45.196Z,44.97
2019-02-18T15:37:03.388Z,48.02
2019-02-18T15:42:21.303Z,50.29
2019-02-18T15:47:39.028Z,53.75
2019-02-18T15:52:56.646Z,54.19
2019-02-18T15:58:13.726Z,56.11
2019-02-18T16:03:31.869Z,58.57
2019-02-18T16:08:49.361Z,59.23
2019-02-18T16:14:07.206Z,59.38
2019-02-18T16:19:24.416Z,60.88
2019-02-18T16:24:43.308Z,61.38
2019-02-18T16:30:02.877Z,62.33
2019-02-18T16:35:20.014Z,65.08
2019-02-18T16:40:37.728Z,66.86
2019-02-18T16:45:55.482Z,70.12
2019-02-18T16:51:13.593Z,70.18
2019-02-18T16:56:31.270Z,71.43
2019-02-18T17:01:49.786Z,69.98
2019-02-18T17:07:07.209Z,69.46
2019-02-18T17:12:25.965Z,72.06
2019-02-18T17:17:44.887Z,70.34
2019-02-18T17:23:03.215Z,72.01
2019-02-18T17:28:20.953Z,72.67
2019-02-18T17:33:38.846Z,74.84
2019-02-18T17:38:57.633Z,75.31
2019-02-18T17:44:20.137Z,77.03
2019-02-18T17:49:33.369Z,74.63
2019-02-18T17:54:52.572Z,73.29
2019-02-18T18:00:11.974Z,78.01
2019-02-18T18:05:30.095Z,77.13
2019-02-18T18:10:48.390Z,77.39
2019-02-18T18:16:06.524Z,78.03
2019-02-18T18:21:23.913Z,79.61
2019-02-18T18:26:41.715Z,79.77
2019-02-18T18:31:59.914Z,80.09
2019-02-18T18:37:17.309Z,78.58
2019-02-18T18:42:35.224Z,80.77
2019-02-18T18:47:53.185Z,81.25
2019-02-18T18:53:10.727Z,81.99
2019-02-18T18:58:28.998Z,82.18
2019-02-18T19:03:48.023Z,81.82
2019-02-18T19:09:06.932Z,81.44
2019-02-18T19:14:24.427Z,82.12
2019-02-18T19:19:43.572Z,81.93
2019-02-18T19:25:02.169Z,81.05
2019-02-18T19:30:21.960Z,82.15
2019-02-18T19:35:39.913Z,83.10
2019-02-18T19:40:58.743Z,83.43
2019-02-18T19:46:16.493Z,82.11
2019-02-18T19:51:34.827Z,83.55
2019-02-18T19:56:53.324Z,84.43
2019-02-18T20:02:11.967Z,84.10
2019-02-18T20:07:29.736Z,84.02
2019-02-18T20:12:47.946Z,83.19
2019-02-18T20:18:06.309Z,83.84
2019-02-18T20:23:24.893Z,84.02
2019-02-18T20:28:43.133Z,84.68
2019-02-18T20:34:01.280Z,83.80
2019-02-18T20:39:20.551Z,84.43
2019-02-18T20:44:46.820Z,84.68
2019-02-18T20:50:05.925Z,84.70
2019-02-18T20:55:24.831Z,84.35
2019-02-18T21:00:43.322Z,84.50
2019-02-18T21:06:02.914Z,84.20
2019-02-18T21:11:20.686Z,84.38
2019-02-18T21:16:40.345Z,84.23
2019-02-18T21:21:59.206Z,85.13
2019-02-18T21:27:17.389Z,85.05
2019-02-18T21:32:37.208Z,84.72
2019-02-18T21:37:55.552Z,84.56
2019-02-18T21:43:13.418Z,85.28
2019-02-18T21:48:31.407Z,85.12
2019-02-18T21:53:49.413Z,85.91
2019-02-18T21:59:06.938Z,85.75
2019-02-18T22:04:25.229Z,85.48
2019-02-18T22:09:43.978Z,85.85
2019-02-18T22:15:02.022Z,85.81
2019-02-18T22:20:20.820Z,85.56
2019-02-18T22:25:38.660Z,85.67
2019-02-18T22:30:56.085Z,86.18
2019-02-18T22:36:13.723Z,86.41
2019-02-18T22:41:31.163Z,86.21
2019-02-18T22:46:48.593Z,86.67
2019-02-18T22:52:06.872Z,86.70
2019-02-18T22:57:24.235Z,86.47
2019-02-18T23:02:42.090Z,86.70
2019-02-18T23:07:59.885Z,87.15
2019-02-18T23:13:18.245Z,87.04
2019-02-18T23:18:35.856Z,86.75
2019-02-18T23:23:53.617Z,86.98
2019-02-18T23:29:12.003Z,86.71
2019-02-18T23:34:29.955Z,86.92
2019-02-18T23:39:47.340Z,86.67
2019-02-18T23:45:05.256Z,86.68
2019-02-18T23:50:22.845Z,86.77
2019-02-18T23:55:40.936Z,86.63
